Fargo, Michigan
Current Conditions -  °F | °C
As of 8:16 AM on Tuesday 21 Oct 2014 (Local Time) from KPHN Reporting Station
Overcast Overcast  
Wind Chill: 42°   Ceiling: 2300
Heat Index: 46°   Visibility: 10mi
Dew Point: 43°   Wind: 9mph
Humidity: 87%   Direction: 330°NNW
Pressure: 29.95"   Gusts: 18mph
Location:  43.076°N, 82.6968°W
Report Text: KPHN 211216Z AUTO 33008G16KT 10SM OVC023 08/06 A2995 RMK AO2
Loading
Personal Weather Stations






























Interactive Weather Map
Tropical Storm Tracking
New forecast layout! Learn more

10-Day Weather Forecast

Advertisements
Track Severe Weather on mobile